Veguita, New Mexico
Current Conditions -  °F | °C
As of 7:55 PM on Sunday 23 Nov 2014 (Local Time) from KE80 Reporting Station
Clear Clear  
Wind Chill: 28°   Ceiling: Unl
Heat Index: 34°   Visibility: 10mi
Dew Point:   Wind: 7mph
Humidity: 34%   Direction: 340°NNW
Pressure: 30.06"   Gusts: NA
Location:  34.51°N, 106.77°W
Report Text: KE80 240255Z AUTO 34006KT 10SM CLR 01/M13 A3006 RMK AO2 T00091135
Loading
Personal Weather Stations






























Interactive Weather Map New forecast layout! Learn more

10-Day Weather Forecast

Advertisements
Track Severe Weather on mobile